Guatemala City, Guatemala
Current Conditions -  °F | °C
As of 5:00 AM on Friday 24 Oct 2014 (Local Time) from MGGT Reporting Station
Few Clouds Few Clouds  
Wind Chill: 18°   Ceiling: Unl
Heat Index: 18°   Visibility: 6mi
Dew Point: 17°   Wind: 5mph
Humidity: 94%   Direction: 30°NNE
Pressure: 30.18"   Gusts: NA
Location:  14.58°N, 90.52°W
Report Text: MGGT 241100Z 03004KT 9999 FEW015 18/17 Q1022 A3018 FEW200
Loading
Personal Weather Stations






























Interactive Weather Map
Tropical Storm Tracking
New forecast layout! Learn more

10-Day Weather Forecast

Advertisements
Track Severe Weather on mobile